Terminal Aerodrome Forecast
Issued by NWS

Home | Current Version | Previous Version | Text Only | Print | Product List | Glossary On
Versions: 1 2 3 4 5 6 7 8 9 10 11 12 13 14 15 16 17 18 19 20 21 22 23 24 25
652
FTUS46 KEKA 290352 AAA
TAFCEC
TAF AMD
KCEC 290352Z 2904/2924 VRB03KT 4SM BR BKN012
     FM290600 VRB03KT 4SM BR BKN006 OVC012
     FM291900 27008KT P6SM SCT012=

USA.gov is the U.S. government's official web portal to all federal, state and local government web resources and services.